createdAt,value
2023-02-11T10:04:13.627Z,99297.88
2023-02-11T10:06:42.198Z,99311.88
2023-02-11T19:23:18.247Z,99134.88
2023-02-11T19:25:45.639Z,99128.34
2023-02-11T19:28:12.861Z,99130.06
2023-02-11T19:30:40.298Z,99135.41
2023-02-11T19:33:10.072Z,99126.78
2023-02-11T19:35:37.596Z,99135.22
2023-02-11T19:38:04.877Z,99135.59
2023-02-11T19:40:33.566Z,99134.66
2023-02-11T19:43:00.790Z,99132.31
2023-02-11T19:45:28.138Z,99131.63
2023-02-11T19:47:56.062Z,99131.19
2023-02-11T19:50:23.310Z,99131.94
2023-02-11T19:52:50.548Z,99137.41
2023-02-11T19:55:18.068Z,99129.56
2023-02-11T19:57:46.791Z,99120.81
2023-02-11T20:00:14.979Z,99133.31
2023-02-11T20:02:42.212Z,99130.41
2023-02-11T20:05:09.499Z,99126.13
2023-02-11T20:07:36.697Z,99126.97
2023-02-11T20:10:04.450Z,99120.94
2023-02-11T20:12:31.686Z,99114.19
2023-02-11T20:15:00.352Z,99124.22
2023-02-11T20:17:27.586Z,99122.69
2023-02-11T20:19:54.871Z,99121.09
2023-02-11T20:22:21.994Z,99122.59
2023-02-11T20:24:49.277Z,99118.19
2023-02-11T20:27:18.405Z,99120.94
2023-02-11T20:29:47.245Z,99122.84
2023-02-11T20:32:16.009Z,99107.63
2023-02-11T20:34:43.357Z,99112.56
2023-02-11T20:37:10.594Z,99113.13
2023-02-11T20:39:37.905Z,99113.34
2023-02-11T20:42:05.170Z,99108.69
2023-02-11T20:44:32.502Z,99111.72
2023-02-11T20:46:59.806Z,99107.84
2023-02-11T20:49:28.540Z,99104.31
2023-02-11T20:51:55.769Z,99105.09
2023-02-11T20:54:23.288Z,99111.97
2023-02-11T20:56:50.720Z,99107.69
2023-02-11T20:59:18.194Z,99109.22
2023-02-11T21:01:47.072Z,99118.56
2023-02-11T21:04:15.047Z,99123.00
2023-02-11T21:06:44.345Z,99125.66
2023-02-11T21:09:13.189Z,99125.25
2023-02-11T21:11:40.478Z,99117.75
2023-02-11T21:14:07.797Z,99121.84
2023-02-11T21:16:35.059Z,99122.41
2023-02-11T21:19:02.300Z,99117.06
2023-02-11T21:21:29.640Z,99114.50
2023-02-11T21:23:58.458Z,99123.00
2023-02-11T21:26:25.792Z,99120.53
2023-02-11T21:28:53.088Z,99127.81
2023-02-11T21:31:21.311Z,99114.75
2023-02-11T21:33:48.751Z,99121.63
2023-02-11T21:36:16.021Z,99122.19
2023-02-11T21:38:43.268Z,99124.50
2023-02-11T21:41:11.942Z,99118.88
2023-02-11T21:43:39.261Z,99117.50
2023-02-11T21:46:10.896Z,99115.84
2023-02-11T21:48:38.168Z,99113.38
2023-02-11T21:51:05.859Z,99111.91
2023-02-11T21:53:33.128Z,99115.97
2023-02-11T21:56:04.922Z,99119.94
2023-02-11T21:58:33.888Z,99121.88
2023-02-11T22:01:01.222Z,99120.25
2023-02-11T22:03:28.497Z,99130.84
2023-02-11T22:05:56.106Z,99130.00
2023-02-11T22:08:23.549Z,99130.97
2023-02-11T22:10:50.749Z,99124.63
2023-02-11T22:13:18.082Z,99123.25
2023-02-11T22:15:46.836Z,99126.69
2023-02-11T22:18:14.067Z,99128.88
